Time;durP1;ratioP1;P1;durP2;ratioP2;P2;SDS_P1;SDS_P2;PMS_P1;PMS_P2;Temp;Humidity;BMP_temperature;BMP_pressure;BME280_temperature;BME280_humidity;BME280_pressure;Samples;Min_cycle;Max_cycle;Signal;HPM_P1;HPM_P2
2022/07/28 13:13:08;;;;;;;;;;;;;;;32.97;27.14;99459.16;4510381;28;19925;-79
2022/07/28 13:15:36;;;;;;;;;;;;;;;33.02;26.72;99460.38;4964080;28;19933;-78
2022/07/28 13:18:05;;;;;;;;;;;;;;;33.08;26.69;99459.78;4991734;28;19926;-77
2022/07/28 13:20:46;;;;;;;;;;;;;;;33.09;26.32;99465.91;5014723;28;19976;-78
2022/07/28 13:23:15;;;;;;;;;;;;;;;33.00;26.08;99464.13;5014992;28;19947;-77
2022/07/28 13:25:44;;;;;;;;;;;;;;;32.81;26.62;99459.78;5015055;28;19929;-80
2022/07/28 13:28:27;;;;;;;;;;;;;;;32.76;26.55;99462.03;5014683;28;19926;-78
2022/07/28 13:30:58;;;;;;;;;;;;;;;32.64;26.77;99459.72;5012768;28;19929;-79
2022/07/28 13:33:27;;;;;;;;;;;;;;;32.53;26.72;99454.63;5013857;28;20044;-78
2022/07/28 13:35:57;;;;;;;;;;;;;;;32.41;26.35;99456.59;5014369;28;19926;-78
2022/07/28 13:38:26;;;;;;;;;;;;;;;32.33;26.62;99459.13;5014585;28;19926;-77
2022/07/28 13:40:54;;;;;;;;;;;;;;;32.28;26.88;99456.06;5014365;28;19925;-78
2022/07/28 13:43:23;;;;;;;;;;;;;;;32.28;26.64;99453.44;5014580;28;19936;-77
2022/07/28 13:46:05;;;;;;;;;;;;;;;32.30;26.97;99448.81;5005584;28;19929;-78
2022/07/28 13:48:39;;;;;;;;;;;;;;;32.30;26.63;99448.81;4998193;28;20283;-78
2022/07/28 13:51:27;;;;;;;;;;;;;;;32.41;28.36;99441.56;5014431;28;19976;-78
2022/07/28 13:54:01;;;;;;;;;;;;;;;32.39;27.25;99438.22;5014217;28;19932;-77
2022/07/28 13:56:30;;;;;;;;;;;;;;;32.25;26.71;99445.81;5014404;28;19980;-77
2022/07/28 13:58:58;;;;;;;;;;;;;;;32.10;26.75;99441.94;5015364;28;19926;-78
2022/07/28 14:01:28;;;;;;;;;;;;;;;32.03;26.89;99430.28;5015947;28;19972;-78
2022/07/28 14:03:57;;;;;;;;;;;;;;;32.00;27.26;99441.13;5014575;28;19925;-78
2022/07/28 14:06:26;;;;;;;;;;;;;;;31.86;27.34;99438.91;5015196;28;20271;-78
2022/07/28 14:08:54;;;;;;;;;;;;;;;31.80;27.76;99438.50;5014870;28;19926;-78
2022/07/28 14:11:23;;;;;;;;;;;;;;;31.61;27.75;99441.16;4996424;28;20020;-77
2022/07/28 14:13:53;;;;;;;;;;;;;;;31.56;27.92;99438.09;5015661;28;19925;-78
2022/07/28 14:16:22;;;;;;;;;;;;;;;31.56;27.92;99430.19;5017428;28;19953;-78
2022/07/28 14:18:52;;;;;;;;;;;;;;;31.68;27.78;99437.00;5002516;28;19975;-77
2022/07/28 14:21:21;;;;;;;;;;;;;;;31.73;27.79;99434.75;5015036;28;19925;-77
2022/07/28 14:23:49;;;;;;;;;;;;;;;31.60;27.94;99428.94;5014071;28;19925;-78
2022/07/28 14:26:18;;;;;;;;;;;;;;;31.51;27.93;99429.78;5014601;28;19926;-78
2022/07/28 14:29:06;;;;;;;;;;;;;;;31.39;28.95;99436.13;5014440;28;19961;-78
2022/07/28 14:31:38;;;;;;;;;;;;;;;31.19;28.94;99429.19;5014156;28;19929;-78
2022/07/28 14:34:09;;;;;;;;;;;;;;;31.12;28.69;99430.72;4996890;28;19926;-78
2022/07/28 14:36:37;;;;;;;;;;;;;;;31.05;28.78;99437.50;5017837;28;19967;-77
2022/07/28 14:39:06;;;;;;;;;;;;;;;31.03;29.08;99428.88;5017749;28;19933;-78
2022/07/28 14:41:41;;;;;;;;;;;;;;;31.08;29.53;99421.38;5000539;28;19925;-78
2022/07/28 14:44:10;;;;;;;;;;;;;;;31.08;29.58;99427.50;5017942;28;19925;-78
2022/07/28 14:46:51;;;;;;;;;;;;;;;31.09;29.49;99429.19;5017721;28;19926;-78
2022/07/28 14:49:22;;;;;;;;;;;;;;;31.06;29.40;99418.91;5018051;28;20279;-78
2022/07/28 14:51:52;;;;;;;;;;;;;;;30.93;29.20;99422.78;5027487;28;19925;-78
2022/07/28 14:54:20;;;;;;;;;;;;;;;30.84;29.56;99419.09;5025275;28;19972;-80
2022/07/28 14:56:48;;;;;;;;;;;;;;;30.75;29.41;99425.19;5023236;28;19956;-78
2022/07/28 14:59:17;;;;;;;;;;;;;;;30.64;29.78;99416.56;5021566;28;19926;-78
2022/07/28 15:01:46;;;;;;;;;;;;;;;30.54;29.64;99410.44;5021819;28;19972;-78
2022/07/28 15:04:16;;;;;;;;;;;;;;;30.49;29.82;99414.31;5023687;28;20024;-78
2022/07/28 15:06:47;;;;;;;;;;;;;;;30.59;29.86;99410.84;4999957;28;20011;-78
2022/07/28 15:09:16;;;;;;;;;;;;;;;30.72;29.51;99411.44;5018396;28;19925;-78
2022/07/28 15:11:46;;;;;;;;;;;;;;;30.80;29.41;99406.31;5017189;28;19972;-78
2022/07/28 15:14:15;;;;;;;;;;;;;;;30.89;29.32;99416.09;5017527;28;19975;-78
2022/07/28 15:16:48;;;;;;;;;;;;;;;30.95;29.39;99405.84;4984438;28;20024;-77
2022/07/28 15:19:17;;;;;;;;;;;;;;;31.04;29.21;99404.19;5017356;28;19980;-78
2022/07/28 15:21:48;;;;;;;;;;;;;;;31.08;29.17;99405.56;5019025;28;20279;-78
2022/07/28 15:24:18;;;;;;;;;;;;;;;31.11;29.55;99400.88;5023909;28;19925;-78
2022/07/28 15:26:46;;;;;;;;;;;;;;;31.15;29.17;99407.53;5028256;28;19926;-78
2022/07/28 15:29:14;;;;;;;;;;;;;;;31.28;29.18;99406.41;5013340;28;19929;-78
2022/07/28 15:31:45;;;;;;;;;;;;;;;31.36;29.40;99406.56;5030822;28;19993;-78
2022/07/28 15:34:16;;;;;;;;;;;;;;;31.42;29.35;99411.28;5008580;28;19926;-78
2022/07/28 15:36:47;;;;;;;;;;;;;;;31.35;29.95;99404.88;5020427;28;20401;-78
2022/07/28 15:39:15;;;;;;;;;;;;;;;31.32;30.16;99405.16;5017630;28;19971;-78
2022/07/28 15:41:46;;;;;;;;;;;;;;;31.38;30.54;99402.81;5017223;28;19948;-78
2022/07/28 15:44:15;;;;;;;;;;;;;;;31.43;30.58;99407.69;5018717;28;20346;-78
2022/07/28 15:46:53;;;;;;;;;;;;;;;31.34;30.27;99401.41;4986270;28;19925;-79
2022/07/28 15:49:21;;;;;;;;;;;;;;;31.31;30.56;99401.72;5020295;28;19968;-79
2022/07/28 15:51:51;;;;;;;;;;;;;;;31.31;30.69;99391.16;5019832;28;19925;-79
2022/07/28 15:54:20;;;;;;;;;;;;;;;31.24;30.92;99397.13;5018446;28;19932;-78
2022/07/28 15:56:48;;;;;;;;;;;;;;;31.21;30.87;99395.59;5017170;28;19938;-78
2022/07/28 15:59:17;;;;;;;;;;;;;;;31.11;30.89;99400.03;5019272;28;19926;-79
2022/07/28 16:01:45;;;;;;;;;;;;;;;31.07;31.07;99393.38;5019780;28;19992;-78
2022/07/28 16:04:13;;;;;;;;;;;;;;;31.02;30.69;99395.59;5024249;28;19932;-78
2022/07/28 16:09:23;;;;;;;;;;;;;;;30.96;31.07;99388.19;5019815;28;19926;-78
2022/07/28 16:12:11;;;;;;;;;;;;;;;30.94;31.17;99391.00;5002460;28;19976;-78
2022/07/28 16:14:42;;;;;;;;;;;;;;;30.99;31.55;99390.56;5020814;28;19977;-79
2022/07/28 16:17:10;;;;;;;;;;;;;;;30.97;31.27;99392.53;5017805;28;19926;-79
2022/07/28 16:19:39;;;;;;;;;;;;;;;30.96;31.42;99393.47;5019793;28;19937;-78
2022/07/28 16:22:17;;;;;;;;;;;;;;;30.89;31.43;99395.84;5021200;28;19949;-78
2022/07/28 16:24:48;;;;;;;;;;;;;;;30.79;31.68;99400.22;5001239;28;19926;-78
2022/07/28 16:27:16;;;;;;;;;;;;;;;30.76;32.08;99397.03;5020058;28;19925;-78
2022/07/28 16:29:45;;;;;;;;;;;;;;;30.77;32.64;99396.03;5018831;28;19952;-78
2022/07/28 16:32:13;;;;;;;;;;;;;;;30.75;32.53;99392.72;5018370;28;19925;-78
2022/07/28 16:34:42;;;;;;;;;;;;;;;30.68;31.79;99391.59;5017979;28;19980;-78
2022/07/28 16:37:11;;;;;;;;;;;;;;;30.59;31.46;99389.78;5016500;28;20395;-78
2022/07/28 16:39:47;;;;;;;;;;;;;;;30.54;31.11;99384.06;5017534;28;19925;-78
2022/07/28 16:42:16;;;;;;;;;;;;;;;30.54;31.42;99386.72;5017655;28;19929;-78
2022/07/28 16:44:46;;;;;;;;;;;;;;;30.50;31.03;99394.88;5019129;28;19937;-78
2022/07/28 16:47:15;;;;;;;;;;;;;;;30.44;31.64;99392.78;5019225;28;20399;-78
2022/07/28 16:49:43;;;;;;;;;;;;;;;30.36;31.74;99392.59;5016233;28;19971;-78
2022/07/28 16:52:13;;;;;;;;;;;;;;;30.27;31.41;99390.75;5015238;28;19955;-78
2022/07/28 16:54:42;;;;;;;;;;;;;;;30.24;32.55;99393.63;5015207;28;19926;-78
2022/07/28 16:57:14;;;;;;;;;;;;;;;30.21;33.59;99387.81;5014829;28;19979;-78
2022/07/28 16:59:42;;;;;;;;;;;;;;;30.09;34.93;99394.94;5015206;28;19957;-77
2022/07/28 17:02:16;;;;;;;;;;;;;;;30.05;34.32;99396.19;5015128;28;20374;-77
2022/07/28 17:04:45;;;;;;;;;;;;;;;30.01;33.88;99402.69;5015114;28;19925;-78
2022/07/28 17:07:14;;;;;;;;;;;;;;;29.92;33.14;99395.56;5014970;28;19933;-78
2022/07/28 17:09:43;;;;;;;;;;;;;;;29.89;32.84;99398.44;5015246;28;20378;-77
2022/07/28 17:12:12;;;;;;;;;;;;;;;29.75;35.00;99394.31;5015069;28;20363;-78
2022/07/28 17:14:42;;;;;;;;;;;;;;;29.58;36.22;99397.53;5014877;28;19925;-78
2022/07/28 17:17:11;;;;;;;;;;;;;;;29.56;35.63;99394.16;5015037;28;20401;-78
2022/07/28 17:19:40;;;;;;;;;;;;;;;29.49;34.30;99395.66;5014848;28;19925;-77
2022/07/28 17:22:14;;;;;;;;;;;;;;;29.45;33.10;99401.28;5014837;28;20382;-78
2022/07/28 17:24:42;;;;;;;;;;;;;;;29.44;33.08;99392.56;5014766;28;19925;-78
2022/07/28 17:27:11;;;;;;;;;;;;;;;29.45;33.22;99404.78;4997267;28;19932;-79
2022/07/28 17:30:01;;;;;;;;;;;;;;;29.43;33.47;99400.59;5015016;28;19925;-78
2022/07/28 17:32:30;;;;;;;;;;;;;;;29.39;33.49;99402.66;5014855;28;19926;-78
2022/07/28 17:34:58;;;;;;;;;;;;;;;29.40;34.02;99400.84;5014437;28;20379;-78
2022/07/28 17:37:27;;;;;;;;;;;;;;;29.37;34.33;99395.84;5014588;28;19930;-78
2022/07/28 17:39:59;;;;;;;;;;;;;;;29.29;33.97;99398.28;5014928;28;19930;-78
2022/07/28 17:42:33;;;;;;;;;;;;;;;29.29;34.43;99403.53;5014554;28;19933;-78
2022/07/28 17:45:03;;;;;;;;;;;;;;;29.12;35.94;99397.81;5014427;28;19932;-78
2022/07/28 17:47:31;;;;;;;;;;;;;;;28.97;37.02;99404.31;4997421;28;20422;-78
2022/07/28 17:50:06;;;;;;;;;;;;;;;28.82;37.48;99404.72;5014777;28;20020;-78
2022/07/28 17:52:34;;;;;;;;;;;;;;;28.70;37.91;99401.25;5014284;28;19933;-78
2022/07/28 17:57:45;;;;;;;;;;;;;;;28.41;38.47;99405.34;5014338;28;19992;-78
2022/07/28 18:00:16;;;;;;;;;;;;;;;28.15;38.95;99409.13;5014486;28;19995;-78
2022/07/28 18:02:46;;;;;;;;;;;;;;;27.95;40.24;99407.19;5014710;28;19945;-78
2022/07/28 18:05:15;;;;;;;;;;;;;;;27.83;40.43;99412.41;5014234;28;19933;-79
2022/07/28 18:07:44;;;;;;;;;;;;;;;27.73;41.15;99414.06;5014381;28;19972;-78
2022/07/28 18:10:19;;;;;;;;;;;;;;;27.61;41.73;99415.00;4996308;28;20318;-78
2022/07/28 18:12:54;;;;;;;;;;;;;;;27.59;42.40;99416.06;4998045;28;20016;-77
2022/07/28 18:15:24;;;;;;;;;;;;;;;27.58;41.97;99415.22;4996737;28;19973;-77
2022/07/28 18:17:54;;;;;;;;;;;;;;;27.53;42.37;99412.09;5014170;28;19925;-78
2022/07/28 18:20:24;;;;;;;;;;;;;;;27.43;43.07;99418.97;5014092;28;19971;-78
2022/07/28 18:22:52;;;;;;;;;;;;;;;27.24;43.77;99416.00;5014529;28;19972;-78
2022/07/28 18:25:21;;;;;;;;;;;;;;;27.15;43.89;99421.91;5014298;28;20260;-79
2022/07/28 18:27:49;;;;;;;;;;;;;;;26.98;44.16;99422.28;4997169;28;20418;-78
2022/07/28 18:30:18;;;;;;;;;;;;;;;26.89;44.60;99420.34;5014275;28;19953;-78
2022/07/28 18:32:48;;;;;;;;;;;;;;;26.81;44.98;99426.13;5013734;28;19929;-77
2022/07/28 18:35:17;;;;;;;;;;;;;;;26.82;44.61;99419.94;5013926;28;19932;-77
2022/07/28 18:37:45;;;;;;;;;;;;;;;26.86;44.04;99425.78;4996472;28;19947;-77
2022/07/28 18:40:16;;;;;;;;;;;;;;;26.80;43.66;99426.25;4964757;28;19925;-78
2022/07/28 18:42:45;;;;;;;;;;;;;;;26.83;43.68;99426.00;5014571;28;20393;-77
2022/07/28 18:45:15;;;;;;;;;;;;;;;26.85;43.78;99439.84;5014483;28;20316;-78
2022/07/28 18:47:43;;;;;;;;;;;;;;;26.73;44.08;99441.50;5013806;28;19925;-78
2022/07/28 18:50:16;;;;;;;;;;;;;;;26.53;45.01;99450.78;5014049;28;20383;-78
2022/07/28 18:52:59;;;;;;;;;;;;;;;26.32;45.40;99467.94;4970076;28;19926;-78
2022/07/28 18:55:28;;;;;;;;;;;;;;;26.20;44.60;99462.72;5013825;28;19940;-78
2022/07/28 18:57:56;;;;;;;;;;;;;;;26.06;44.95;99470.66;5013536;28;20023;-78
2022/07/28 19:00:25;;;;;;;;;;;;;;;25.89;45.07;99471.78;5013339;28;19980;-77
2022/07/28 19:02:53;;;;;;;;;;;;;;;25.67;45.99;99474.97;5013642;28;19948;-77
2022/07/28 19:05:23;;;;;;;;;;;;;;;25.60;45.84;99480.72;5013601;28;19926;-77
2022/07/28 19:07:52;;;;;;;;;;;;;;;25.57;46.13;99484.34;5013971;28;19933;-77
2022/07/28 19:10:20;;;;;;;;;;;;;;;25.43;46.90;99480.94;5013686;28;20413;-78
2022/07/28 19:12:49;;;;;;;;;;;;;;;25.28;47.95;99478.38;4996210;28;19972;-77
2022/07/28 19:15:18;;;;;;;;;;;;;;;25.36;47.22;99484.88;5013638;28;19984;-77
2022/07/28 19:17:47;;;;;;;;;;;;;;;25.39;47.57;99485.50;5013576;28;20014;-77
2022/07/28 19:20:37;;;;;;;;;;;;;;;25.39;47.73;99489.91;4981359;28;19929;-77
2022/07/28 19:23:06;;;;;;;;;;;;;;;25.22;48.08;99489.19;5000003;28;19976;-77
2022/07/28 19:25:36;;;;;;;;;;;;;;;25.06;48.20;99492.88;4999782;28;20275;-77
2022/07/28 19:28:05;;;;;;;;;;;;;;;24.94;48.40;99497.09;5017116;28;19968;-77
2022/07/28 19:30:34;;;;;;;;;;;;;;;24.89;48.70;99495.69;5017227;28;19925;-78
2022/07/28 19:33:03;;;;;;;;;;;;;;;24.82;49.10;99492.63;5016758;28;19996;-77
2022/07/28 19:35:31;;;;;;;;;;;;;;;24.78;49.15;99488.53;5000171;28;20326;-78
2022/07/28 19:38:01;;;;;;;;;;;;;;;24.77;48.26;99497.28;4999285;28;19925;-77
2022/07/28 19:40:30;;;;;;;;;;;;;;;24.77;48.23;99492.06;5016509;28;19933;-77
2022/07/28 19:43:00;;;;;;;;;;;;;;;24.82;48.31;99505.69;5016831;28;19926;-77
2022/07/28 19:45:28;;;;;;;;;;;;;;;24.84;48.19;99498.59;5016907;28;20402;-78
2022/07/28 19:47:57;;;;;;;;;;;;;;;24.76;48.42;99500.84;5000127;28;19929;-77
2022/07/28 19:50:26;;;;;;;;;;;;;;;24.63;48.78;99499.88;5016840;28;19925;-77
2022/07/28 19:52:55;;;;;;;;;;;;;;;24.49;48.73;99502.50;4999214;28;19929;-77
2022/07/28 19:55:26;;;;;;;;;;;;;;;24.41;49.33;99494.28;5016440;28;19926;-77
2022/07/28 19:57:59;;;;;;;;;;;;;;;24.26;49.50;99503.03;5016430;28;19965;-77
2022/07/28 20:00:30;;;;;;;;;;;;;;;24.11;49.63;99506.56;5016391;28;19926;-77
2022/07/28 20:02:59;;;;;;;;;;;;;;;24.14;49.69;99511.59;5016284;28;20441;-77
2022/07/28 20:05:28;;;;;;;;;;;;;;;24.18;49.44;99513.09;5016209;28;19953;-77
2022/07/28 20:07:56;;;;;;;;;;;;;;;24.18;49.14;99516.53;5016173;28;19925;-77
2022/07/28 20:10:26;;;;;;;;;;;;;;;24.12;50.09;99509.06;5016519;28;20291;-77
2022/07/28 20:12:55;;;;;;;;;;;;;;;24.00;50.29;99517.56;5017283;28;19925;-76
2022/07/28 20:15:26;;;;;;;;;;;;;;;23.82;50.38;99511.66;4998789;28;19932;-77
2022/07/28 20:17:55;;;;;;;;;;;;;;;23.81;50.32;99509.97;5016385;28;20011;-77
2022/07/28 20:20:23;;;;;;;;;;;;;;;23.69;50.75;99521.09;5016021;28;19988;-77
2022/07/28 20:22:52;;;;;;;;;;;;;;;23.67;51.00;99522.09;4966848;28;19984;-77
2022/07/28 20:25:21;;;;;;;;;;;;;;;23.61;51.74;99523.28;4998430;28;19933;-77
2022/07/28 20:27:52;;;;;;;;;;;;;;;23.55;51.58;99523.66;5015927;28;20023;-77
2022/07/28 20:30:21;;;;;;;;;;;;;;;23.61;50.86;99531.09;5016211;28;19926;-76
2022/07/28 20:32:50;;;;;;;;;;;;;;;23.70;50.65;99528.00;4997620;28;19979;-77
2022/07/28 20:35:19;;;;;;;;;;;;;;;23.56;51.00;99527.94;5016177;28;20098;-77
2022/07/28 20:37:48;;;;;;;;;;;;;;;23.44;51.30;99533.84;4998350;28;20063;-77
2022/07/28 20:40:17;;;;;;;;;;;;;;;23.31;51.79;99532.78;5015903;28;19930;-77
2022/07/28 20:42:45;;;;;;;;;;;;;;;23.27;51.94;99533.88;5015512;28;19929;-77
2022/07/28 20:45:22;;;;;;;;;;;;;;;23.24;52.16;99539.25;4998320;28;20028;-77
2022/07/28 20:47:50;;;;;;;;;;;;;;;23.17;52.22;99532.72;5015741;28;19925;-77
2022/07/28 20:50:20;;;;;;;;;;;;;;;22.98;52.93;99534.63;5015478;28;19984;-77
2022/07/28 20:52:48;;;;;;;;;;;;;;;22.81;53.18;99545.09;5015321;28;20302;-77
2022/07/28 20:55:17;;;;;;;;;;;;;;;22.72;53.86;99550.78;4998674;28;19949;-77
2022/07/28 20:57:45;;;;;;;;;;;;;;;22.76;53.42;99541.88;5015661;28;19969;-75
2022/07/28 21:00:22;;;;;;;;;;;;;;;22.78;53.27;99540.88;4999029;28;20490;-77
2022/07/28 21:02:51;;;;;;;;;;;;;;;22.73;53.12;99542.88;5015545;28;19980;-77
2022/07/28 21:05:20;;;;;;;;;;;;;;;22.74;53.11;99533.31;4997568;28;19926;-76
2022/07/28 21:08:03;;;;;;;;;;;;;;;22.91;52.48;99533.28;4998432;28;19983;-76
2022/07/28 21:10:43;;;;;;;;;;;;;;;23.00;52.59;99535.38;4998137;28;19925;-77
2022/07/28 21:13:11;;;;;;;;;;;;;;;23.02;52.03;99536.97;4997187;28;20371;-77
2022/07/28 21:15:41;;;;;;;;;;;;;;;23.05;51.85;99538.56;5015228;28;19925;-77
2022/07/28 21:18:10;;;;;;;;;;;;;;;23.05;51.56;99536.81;4997664;28;19933;-77
2022/07/28 21:20:38;;;;;;;;;;;;;;;23.10;51.87;99528.75;5014879;28;19940;-77
2022/07/28 21:23:07;;;;;;;;;;;;;;;23.10;51.92;99536.56;5014834;28;19961;-77
2022/07/28 21:25:35;;;;;;;;;;;;;;;22.85;52.46;99538.78;4997829;28;19926;-77
2022/07/28 21:30:44;;;;;;;;;;;;;;;22.44;53.84;99540.91;5015109;28;19925;-77
2022/07/28 21:33:13;;;;;;;;;;;;;;;22.34;54.19;99540.53;5014645;28;20371;-77
2022/07/28 21:35:50;;;;;;;;;;;;;;;22.27;54.30;99543.53;5014550;28;19968;-74
2022/07/28 21:38:18;;;;;;;;;;;;;;;22.32;54.51;99546.75;4997326;28;20426;-76
2022/07/28 21:40:47;;;;;;;;;;;;;;;22.46;54.00;99550.31;5014505;28;19926;-77
2022/07/28 21:43:16;;;;;;;;;;;;;;;22.56;53.67;99546.31;5014457;28;20310;-77
2022/07/28 21:45:47;;;;;;;;;;;;;;;22.56;53.57;99551.53;5015154;28;19926;-77
2022/07/28 21:48:18;;;;;;;;;;;;;;;22.48;53.78;99551.06;4997371;28;19926;-77
2022/07/28 21:50:47;;;;;;;;;;;;;;;22.44;54.03;99559.97;5014339;28;19929;-77
2022/07/28 21:53:16;;;;;;;;;;;;;;;22.31;54.37;99555.47;4948782;28;20367;-77
2022/07/28 21:55:45;;;;;;;;;;;;;;;22.38;54.27;99559.44;5014451;28;19925;-77
2022/07/28 21:58:15;;;;;;;;;;;;;;;22.36;54.36;99563.88;5014291;28;19932;-77
2022/07/28 22:00:44;;;;;;;;;;;;;;;22.21;54.95;99564.66;4981172;28;19926;-77
2022/07/28 22:03:14;;;;;;;;;;;;;;;22.06;55.33;99571.44;4996669;28;19961;-77
2022/07/28 22:05:43;;;;;;;;;;;;;;;21.91;55.98;99569.59;4996987;28;19948;-79
2022/07/28 22:08:12;;;;;;;;;;;;;;;21.80;56.34;99558.84;5014477;28;19925;-77
2022/07/28 22:10:40;;;;;;;;;;;;;;;21.72;56.44;99566.16;5014443;28;19992;-77
2022/07/28 22:13:09;;;;;;;;;;;;;;;21.72;56.70;99572.22;5013822;28;19983;-77
2022/07/28 22:15:38;;;;;;;;;;;;;;;21.80;56.02;99569.25;4964797;28;19925;-77
2022/07/28 22:18:07;;;;;;;;;;;;;;;21.95;55.82;99571.16;4996400;28;19948;-77
2022/07/28 22:20:45;;;;;;;;;;;;;;;22.04;55.22;99575.88;5014459;28;19980;-77
2022/07/28 22:23:15;;;;;;;;;;;;;;;22.09;54.99;99586.91;5014501;28;19925;-77
2022/07/28 22:25:57;;;;;;;;;;;;;;;22.11;54.87;99582.47;4982943;28;20268;-77
2022/07/28 22:28:26;;;;;;;;;;;;;;;22.16;54.64;99577.03;4996792;28;19926;-77
2022/07/28 22:30:57;;;;;;;;;;;;;;;22.15;54.97;99581.38;4997473;28;19953;-77
2022/07/28 22:33:37;;;;;;;;;;;;;;;22.12;54.85;99580.72;4998461;28;20375;-77
2022/07/28 22:36:09;;;;;;;;;;;;;;;22.10;55.38;99585.16;5014086;28;20062;-77
2022/07/28 22:38:37;;;;;;;;;;;;;;;22.00;55.81;99587.38;5014104;28;19925;-77
2022/07/28 22:41:08;;;;;;;;;;;;;;;21.93;56.14;99580.78;4996740;28;19979;-77
2022/07/28 22:43:37;;;;;;;;;;;;;;;21.83;56.34;99585.53;4980815;28;19968;-77
2022/07/28 22:46:06;;;;;;;;;;;;;;;21.69;56.56;99587.13;5013899;28;19991;-77
2022/07/28 22:48:35;;;;;;;;;;;;;;;21.60;56.80;99584.94;4996910;28;19925;-77
2022/07/28 22:51:03;;;;;;;;;;;;;;;21.50;57.08;99586.28;5014416;28;19979;-77
2022/07/28 22:53:34;;;;;;;;;;;;;;;21.41;57.39;99582.34;5014149;28;19933;-77
2022/07/28 22:56:02;;;;;;;;;;;;;;;21.33;57.91;99590.50;4998655;28;20343;-77
2022/07/28 22:58:31;;;;;;;;;;;;;;;21.29;58.06;99578.56;5000216;28;19925;-77
2022/07/28 23:01:00;;;;;;;;;;;;;;;21.28;57.98;99582.06;5017442;28;19936;-77
2022/07/28 23:03:31;;;;;;;;;;;;;;;21.28;58.00;99587.25;5017733;28;19984;-75
2022/07/28 23:06:00;;;;;;;;;;;;;;;21.31;57.78;99587.13;5017455;28;19929;-77
2022/07/28 23:08:29;;;;;;;;;;;;;;;21.38;57.33;99588.53;5000334;28;19925;-77
2022/07/28 23:10:59;;;;;;;;;;;;;;;21.46;56.98;99593.38;4999902;28;19926;-77
2022/07/28 23:13:28;;;;;;;;;;;;;;;21.51;56.79;99593.16;5017090;28;20394;-77
2022/07/28 23:15:57;;;;;;;;;;;;;;;21.49;57.35;99589.78;4983684;28;19925;-77
2022/07/28 23:18:25;;;;;;;;;;;;;;;21.40;57.83;99590.22;5017421;28;19926;-77
2022/07/28 23:20:54;;;;;;;;;;;;;;;21.34;58.07;99591.34;5000174;28;19933;-77
2022/07/28 23:23:23;;;;;;;;;;;;;;;21.38;58.26;99597.25;5017128;28;19971;-77
2022/07/28 23:25:52;;;;;;;;;;;;;;;21.38;57.83;99592.06;5017186;28;19925;-77
2022/07/28 23:28:22;;;;;;;;;;;;;;;21.41;57.41;99597.94;4999533;28;19925;-77
2022/07/28 23:30:50;;;;;;;;;;;;;;;21.46;57.32;99589.94;5017219;28;20287;-77
2022/07/28 23:33:19;;;;;;;;;;;;;;;21.46;57.21;99589.94;4999942;28;20274;-76
2022/07/28 23:36:08;;;;;;;;;;;;;;;21.48;57.13;99595.88;5016847;28;20401;-76
2022/07/28 23:38:55;;;;;;;;;;;;;;;21.45;56.97;99596.06;5016818;28;19925;-76
2022/07/28 23:41:24;;;;;;;;;;;;;;;21.44;56.92;99589.16;5017038;28;20330;-76
2022/07/28 23:43:54;;;;;;;;;;;;;;;21.44;56.86;99594.34;5016918;28;19980;-76
2022/07/28 23:46:22;;;;;;;;;;;;;;;21.42;56.94;99593.59;5016705;28;19932;-76
2022/07/28 23:48:51;;;;;;;;;;;;;;;21.35;57.13;99598.22;5016539;28;19929;-76
2022/07/28 23:51:21;;;;;;;;;;;;;;;21.34;57.22;99593.94;5016488;28;19933;-76
2022/07/28 23:54:10;;;;;;;;;;;;;;;21.34;57.16;99592.19;5002728;28;19935;-77
2022/07/28 23:56:42;;;;;;;;;;;;;;;21.29;57.18;99599.34;4999014;28;19960;-77
2022/07/28 23:59:12;;;;;;;;;;;;;;;21.25;57.53;99592.63;5016925;28;19925;-77
